sensor_id;sensor_type;location;lat;lon;timestamp;P1;durP1;ratioP1;P2;durP2;ratioP2
40088;SDS011;25793;55.706;13.186;2022-10-31T00:01:22;698.00;;;398.90;;
40088;SDS011;25793;55.706;13.186;2022-10-31T00:03:49;696.27;;;400.37;;
40088;SDS011;25793;55.706;13.186;2022-10-31T00:06:15;611.67;;;392.57;;
40088;SDS011;25793;55.706;13.186;2022-10-31T00:08:52;685.92;;;391.38;;
40088;SDS011;25793;55.706;13.186;2022-10-31T00:11:23;743.53;;;399.95;;
40088;SDS011;25793;55.706;13.186;2022-10-31T00:13:50;655.80;;;399.75;;
40088;SDS011;25793;55.706;13.186;2022-10-31T00:31:03;595.60;;;389.52;;
40088;SDS011;25793;55.706;13.186;2022-10-31T00:33:32;626.63;;;403.73;;
40088;SDS011;25793;55.706;13.186;2022-10-31T00:36:00;654.25;;;412.88;;
40088;SDS011;25793;55.706;13.186;2022-10-31T00:38:27;617.17;;;395.33;;
40088;SDS011;25793;55.706;13.186;2022-10-31T00:40:54;613.00;;;390.40;;
40088;SDS011;25793;55.706;13.186;2022-10-31T00:43:20;560.63;;;398.52;;
40088;SDS011;25793;55.706;13.186;2022-10-31T00:45:47;584.42;;;397.60;;
40088;SDS011;25793;55.706;13.186;2022-10-31T00:51:09;436.50;;;389.55;;
40088;SDS011;25793;55.706;13.186;2022-10-31T00:53:35;430.42;;;383.45;;
40088;SDS011;25793;55.706;13.186;2022-10-31T00:56:02;423.58;;;377.08;;
40088;SDS011;25793;55.706;13.186;2022-10-31T00:58:30;430.67;;;380.70;;
40088;SDS011;25793;55.706;13.186;2022-10-31T01:00:56;419.70;;;374.27;;
40088;SDS011;25793;55.706;13.186;2022-10-31T01:03:24;425.70;;;378.98;;
40088;SDS011;25793;55.706;13.186;2022-10-31T01:06:00;426.80;;;376.30;;
40088;SDS011;25793;55.706;13.186;2022-10-31T01:08:31;424.25;;;377.95;;
40088;SDS011;25793;55.706;13.186;2022-10-31T01:11:08;414.93;;;370.00;;
40088;SDS011;25793;55.706;13.186;2022-10-31T01:13:39;416.70;;;371.85;;
40088;SDS011;25793;55.706;13.186;2022-10-31T01:16:07;427.70;;;381.55;;
40088;SDS011;25793;55.706;13.186;2022-10-31T01:18:36;423.70;;;378.23;;
40088;SDS011;25793;55.706;13.186;2022-10-31T01:23:34;418.53;;;373.40;;
40088;SDS011;25793;55.706;13.186;2022-10-31T01:26:02;431.70;;;383.98;;
40088;SDS011;25793;55.706;13.186;2022-10-31T01:28:42;419.70;;;373.60;;
40088;SDS011;25793;55.706;13.186;2022-10-31T01:31:13;428.42;;;383.55;;
40088;SDS011;25793;55.706;13.186;2022-10-31T01:33:41;425.02;;;380.20;;
40088;SDS011;25793;55.706;13.186;2022-10-31T01:36:14;422.08;;;377.55;;
40088;SDS011;25793;55.706;13.186;2022-10-31T01:38:43;429.10;;;384.25;;
40088;SDS011;25793;55.706;13.186;2022-10-31T01:41:10;421.45;;;376.77;;
40088;SDS011;25793;55.706;13.186;2022-10-31T01:43:42;417.33;;;374.00;;
40088;SDS011;25793;55.706;13.186;2022-10-31T01:46:11;416.97;;;373.20;;
40088;SDS011;25793;55.706;13.186;2022-10-31T01:48:39;418.30;;;373.77;;
40088;SDS011;25793;55.706;13.186;2022-10-31T01:51:09;442.25;;;395.52;;
40088;SDS011;25793;55.706;13.186;2022-10-31T01:53:37;426.92;;;380.55;;
40088;SDS011;25793;55.706;13.186;2022-10-31T01:56:06;437.67;;;390.27;;
40088;SDS011;25793;55.706;13.186;2022-10-31T01:58:36;432.23;;;386.85;;
40088;SDS011;25793;55.706;13.186;2022-10-31T02:01:03;410.20;;;367.88;;
40088;SDS011;25793;55.706;13.186;2022-10-31T02:03:34;406.95;;;363.90;;
40088;SDS011;25793;55.706;13.186;2022-10-31T02:06:01;414.35;;;371.45;;
40088;SDS011;25793;55.706;13.186;2022-10-31T02:08:31;416.52;;;372.70;;
40088;SDS011;25793;55.706;13.186;2022-10-31T02:11:01;427.80;;;383.13;;
40088;SDS011;25793;55.706;13.186;2022-10-31T02:13:28;424.23;;;379.35;;
40088;SDS011;25793;55.706;13.186;2022-10-31T02:15:56;426.27;;;381.25;;
40088;SDS011;25793;55.706;13.186;2022-10-31T02:18:25;417.80;;;373.83;;
40088;SDS011;25793;55.706;13.186;2022-10-31T02:23:45;418.42;;;374.02;;
40088;SDS011;25793;55.706;13.186;2022-10-31T02:26:41;423.33;;;378.88;;
40088;SDS011;25793;55.706;13.186;2022-10-31T02:32:27;426.50;;;382.20;;
40088;SDS011;25793;55.706;13.186;2022-10-31T02:35:03;421.23;;;378.65;;
40088;SDS011;25793;55.706;13.186;2022-10-31T02:40:32;404.85;;;364.02;;
40088;SDS011;25793;55.706;13.186;2022-10-31T02:43:40;402.35;;;359.13;;
40088;SDS011;25793;55.706;13.186;2022-10-31T02:46:34;417.90;;;375.83;;
40088;SDS011;25793;55.706;13.186;2022-10-31T02:51:49;406.80;;;365.48;;
40088;SDS011;25793;55.706;13.186;2022-10-31T02:54:17;400.77;;;360.13;;
40088;SDS011;25793;55.706;13.186;2022-10-31T02:56:49;404.63;;;363.45;;
40088;SDS011;25793;55.706;13.186;2022-10-31T02:59:20;396.80;;;356.52;;
40088;SDS011;25793;55.706;13.186;2022-10-31T03:04:42;402.23;;;361.65;;
40088;SDS011;25793;55.706;13.186;2022-10-31T03:07:25;399.55;;;359.38;;
40088;SDS011;25793;55.706;13.186;2022-10-31T03:10:07;400.52;;;360.23;;
40088;SDS011;25793;55.706;13.186;2022-10-31T03:15:32;403.00;;;362.87;;
40088;SDS011;25793;55.706;13.186;2022-10-31T03:18:04;407.38;;;366.88;;
40088;SDS011;25793;55.706;13.186;2022-10-31T03:20:43;400.63;;;361.10;;
40088;SDS011;25793;55.706;13.186;2022-10-31T03:23:15;407.80;;;367.67;;
40088;SDS011;25793;55.706;13.186;2022-10-31T03:25:48;410.33;;;369.60;;
40088;SDS011;25793;55.706;13.186;2022-10-31T03:28:18;414.97;;;374.17;;
40088;SDS011;25793;55.706;13.186;2022-10-31T03:30:46;415.63;;;375.67;;
40088;SDS011;25793;55.706;13.186;2022-10-31T03:33:16;416.33;;;376.02;;
40088;SDS011;25793;55.706;13.186;2022-10-31T03:35:48;410.65;;;370.52;;
40088;SDS011;25793;55.706;13.186;2022-10-31T03:38:18;409.48;;;369.35;;
40088;SDS011;25793;55.706;13.186;2022-10-31T03:40:46;405.13;;;365.58;;
40088;SDS011;25793;55.706;13.186;2022-10-31T03:43:16;402.23;;;362.92;;
40088;SDS011;25793;55.706;13.186;2022-10-31T03:45:55;400.60;;;361.40;;
40088;SDS011;25793;55.706;13.186;2022-10-31T03:48:23;404.63;;;365.13;;
40088;SDS011;25793;55.706;13.186;2022-10-31T03:53:38;409.50;;;369.45;;
40088;SDS011;25793;55.706;13.186;2022-10-31T03:56:21;402.25;;;362.90;;
40088;SDS011;25793;55.706;13.186;2022-10-31T04:02:02;395.50;;;357.25;;
40088;SDS011;25793;55.706;13.186;2022-10-31T04:04:34;385.77;;;348.17;;
40088;SDS011;25793;55.706;13.186;2022-10-31T04:07:04;387.57;;;349.63;;
40088;SDS011;25793;55.706;13.186;2022-10-31T04:09:35;393.08;;;354.67;;
40088;SDS011;25793;55.706;13.186;2022-10-31T04:12:04;390.85;;;352.98;;
40088;SDS011;25793;55.706;13.186;2022-10-31T04:14:57;389.23;;;351.50;;
40088;SDS011;25793;55.706;13.186;2022-10-31T04:17:26;393.30;;;355.15;;
40088;SDS011;25793;55.706;13.186;2022-10-31T04:19:58;393.17;;;354.60;;
40088;SDS011;25793;55.706;13.186;2022-10-31T04:22:27;389.08;;;351.10;;
40088;SDS011;25793;55.706;13.186;2022-10-31T04:24:54;393.20;;;354.92;;
40088;SDS011;25793;55.706;13.186;2022-10-31T04:27:20;389.38;;;351.27;;
40088;SDS011;25793;55.706;13.186;2022-10-31T04:29:47;389.20;;;350.75;;
40088;SDS011;25793;55.706;13.186;2022-10-31T04:32:17;386.80;;;348.88;;
40088;SDS011;25793;55.706;13.186;2022-10-31T04:34:43;395.30;;;356.50;;
40088;SDS011;25793;55.706;13.186;2022-10-31T04:37:10;385.50;;;347.50;;
40088;SDS011;25793;55.706;13.186;2022-10-31T04:39:37;373.50;;;336.23;;
40088;SDS011;25793;55.706;13.186;2022-10-31T04:42:23;383.23;;;345.20;;
40088;SDS011;25793;55.706;13.186;2022-10-31T04:44:50;383.35;;;345.65;;
40088;SDS011;25793;55.706;13.186;2022-10-31T04:47:17;383.02;;;346.08;;
40088;SDS011;25793;55.706;13.186;2022-10-31T04:49:44;387.10;;;349.80;;
40088;SDS011;25793;55.706;13.186;2022-10-31T04:52:12;386.05;;;348.95;;
40088;SDS011;25793;55.706;13.186;2022-10-31T04:54:39;377.25;;;340.60;;
40088;SDS011;25793;55.706;13.186;2022-10-31T04:57:41;374.88;;;338.30;;
40088;SDS011;25793;55.706;13.186;2022-10-31T05:00:15;384.45;;;347.95;;
40088;SDS011;25793;55.706;13.186;2022-10-31T05:02:47;380.70;;;344.00;;
40088;SDS011;25793;55.706;13.186;2022-10-31T05:05:16;385.02;;;348.13;;
40088;SDS011;25793;55.706;13.186;2022-10-31T05:07:45;379.58;;;342.77;;
40088;SDS011;25793;55.706;13.186;2022-10-31T05:10:14;381.90;;;345.00;;
40088;SDS011;25793;55.706;13.186;2022-10-31T05:12:45;369.60;;;334.13;;
40088;SDS011;25793;55.706;13.186;2022-10-31T05:15:34;368.93;;;332.33;;
40088;SDS011;25793;55.706;13.186;2022-10-31T05:18:36;364.27;;;327.70;;
40088;SDS011;25793;55.706;13.186;2022-10-31T05:21:25;371.75;;;334.48;;
40088;SDS011;25793;55.706;13.186;2022-10-31T05:23:57;373.77;;;337.27;;
40088;SDS011;25793;55.706;13.186;2022-10-31T05:26:23;380.95;;;343.85;;
40088;SDS011;25793;55.706;13.186;2022-10-31T05:28:52;369.00;;;332.90;;
40088;SDS011;25793;55.706;13.186;2022-10-31T05:31:18;371.23;;;334.93;;
40088;SDS011;25793;55.706;13.186;2022-10-31T05:33:46;370.92;;;333.92;;
40088;SDS011;25793;55.706;13.186;2022-10-31T05:36:32;365.92;;;329.88;;
40088;SDS011;25793;55.706;13.186;2022-10-31T05:39:09;366.80;;;330.50;;
40088;SDS011;25793;55.706;13.186;2022-10-31T05:41:40;372.23;;;335.40;;
40088;SDS011;25793;55.706;13.186;2022-10-31T05:44:13;364.42;;;328.83;;
40088;SDS011;25793;55.706;13.186;2022-10-31T05:46:56;365.15;;;328.83;;
40088;SDS011;25793;55.706;13.186;2022-10-31T05:49:58;360.83;;;324.10;;
40088;SDS011;25793;55.706;13.186;2022-10-31T05:52:31;385.45;;;347.48;;
40088;SDS011;25793;55.706;13.186;2022-10-31T05:55:05;372.10;;;335.40;;
40088;SDS011;25793;55.706;13.186;2022-10-31T05:57:33;380.25;;;342.90;;
40088;SDS011;25793;55.706;13.186;2022-10-31T06:00:00;377.63;;;340.13;;
40088;SDS011;25793;55.706;13.186;2022-10-31T06:02:33;377.63;;;339.50;;
40088;SDS011;25793;55.706;13.186;2022-10-31T06:05:24;374.45;;;336.75;;
40088;SDS011;25793;55.706;13.186;2022-10-31T06:07:51;386.33;;;348.83;;
40088;SDS011;25793;55.706;13.186;2022-10-31T06:10:18;388.60;;;350.73;;
40088;SDS011;25793;55.706;13.186;2022-10-31T06:12:50;389.75;;;351.67;;
40088;SDS011;25793;55.706;13.186;2022-10-31T06:15:28;378.10;;;340.93;;
40088;SDS011;25793;55.706;13.186;2022-10-31T06:18:05;367.48;;;330.20;;
40088;SDS011;25793;55.706;13.186;2022-10-31T06:20:35;370.08;;;332.77;;
40088;SDS011;25793;55.706;13.186;2022-10-31T06:23:03;363.10;;;326.53;;
40088;SDS011;25793;55.706;13.186;2022-10-31T06:25:32;371.35;;;334.88;;
40088;SDS011;25793;55.706;13.186;2022-10-31T06:27:59;377.23;;;340.70;;
40088;SDS011;25793;55.706;13.186;2022-10-31T06:30:35;371.85;;;335.52;;
40088;SDS011;25793;55.706;13.186;2022-10-31T06:33:03;359.92;;;324.20;;
40088;SDS011;25793;55.706;13.186;2022-10-31T06:35:32;383.80;;;346.83;;
40088;SDS011;25793;55.706;13.186;2022-10-31T06:37:59;378.48;;;341.95;;
40088;SDS011;25793;55.706;13.186;2022-10-31T06:40:34;385.50;;;347.42;;
40088;SDS011;25793;55.706;13.186;2022-10-31T06:43:21;364.45;;;328.08;;
40088;SDS011;25793;55.706;13.186;2022-10-31T06:45:52;387.67;;;348.50;;
40088;SDS011;25793;55.706;13.186;2022-10-31T06:48:22;367.90;;;331.42;;
40088;SDS011;25793;55.706;13.186;2022-10-31T06:51:14;368.02;;;331.23;;
40088;SDS011;25793;55.706;13.186;2022-10-31T06:53:40;380.25;;;342.50;;
40088;SDS011;25793;55.706;13.186;2022-10-31T06:56:09;374.45;;;336.60;;
40088;SDS011;25793;55.706;13.186;2022-10-31T06:58:42;373.23;;;336.15;;
40088;SDS011;25793;55.706;13.186;2022-10-31T07:01:10;361.40;;;325.00;;
40088;SDS011;25793;55.706;13.186;2022-10-31T07:03:38;360.13;;;323.50;;
40088;SDS011;25793;55.706;13.186;2022-10-31T07:06:04;358.70;;;321.92;;
40088;SDS011;25793;55.706;13.186;2022-10-31T07:08:32;358.77;;;322.60;;
40088;SDS011;25793;55.706;13.186;2022-10-31T07:10:58;372.75;;;335.10;;
40088;SDS011;25793;55.706;13.186;2022-10-31T07:13:27;366.85;;;330.02;;
40088;SDS011;25793;55.706;13.186;2022-10-31T07:16:04;358.08;;;322.45;;
40088;SDS011;25793;55.706;13.186;2022-10-31T07:18:34;358.92;;;322.90;;
40088;SDS011;25793;55.706;13.186;2022-10-31T07:21:01;356.55;;;320.42;;
40088;SDS011;25793;55.706;13.186;2022-10-31T07:23:28;356.90;;;320.55;;
40088;SDS011;25793;55.706;13.186;2022-10-31T07:26:14;357.50;;;321.83;;
40088;SDS011;25793;55.706;13.186;2022-10-31T07:28:48;356.17;;;320.33;;
40088;SDS011;25793;55.706;13.186;2022-10-31T07:31:18;345.00;;;310.15;;
40088;SDS011;25793;55.706;13.186;2022-10-31T07:33:45;350.00;;;314.88;;
40088;SDS011;25793;55.706;13.186;2022-10-31T07:36:24;357.02;;;321.65;;
40088;SDS011;25793;55.706;13.186;2022-10-31T07:38:52;364.95;;;329.10;;
40088;SDS011;25793;55.706;13.186;2022-10-31T07:41:20;367.52;;;332.17;;
40088;SDS011;25793;55.706;13.186;2022-10-31T07:43:47;354.13;;;319.35;;
40088;SDS011;25793;55.706;13.186;2022-10-31T07:46:14;357.70;;;323.08;;
40088;SDS011;25793;55.706;13.186;2022-10-31T07:48:56;357.67;;;322.77;;
40088;SDS011;25793;55.706;13.186;2022-10-31T07:51:51;360.40;;;325.60;;
40088;SDS011;25793;55.706;13.186;2022-10-31T07:54:44;361.02;;;326.38;;
40088;SDS011;25793;55.706;13.186;2022-10-31T07:57:11;350.55;;;317.02;;
40088;SDS011;25793;55.706;13.186;2022-10-31T07:59:38;360.08;;;325.83;;
40088;SDS011;25793;55.706;13.186;2022-10-31T08:02:07;360.25;;;325.85;;
40088;SDS011;25793;55.706;13.186;2022-10-31T08:04:52;364.55;;;329.42;;
40088;SDS011;25793;55.706;13.186;2022-10-31T08:07:28;367.83;;;332.42;;
40088;SDS011;25793;55.706;13.186;2022-10-31T08:10:02;377.92;;;341.55;;
40088;SDS011;25793;55.706;13.186;2022-10-31T08:12:30;378.40;;;342.40;;
40088;SDS011;25793;55.706;13.186;2022-10-31T08:14:57;375.55;;;339.90;;
40088;SDS011;25793;55.706;13.186;2022-10-31T08:17:24;374.08;;;338.02;;
40088;SDS011;25793;55.706;13.186;2022-10-31T08:19:54;364.38;;;328.73;;
40088;SDS011;25793;55.706;13.186;2022-10-31T08:22:26;377.15;;;340.90;;
40088;SDS011;25793;55.706;13.186;2022-10-31T08:24:53;376.75;;;340.30;;
40088;SDS011;25793;55.706;13.186;2022-10-31T08:27:20;374.73;;;338.08;;
40088;SDS011;25793;55.706;13.186;2022-10-31T08:29:47;374.92;;;338.23;;
40088;SDS011;25793;55.706;13.186;2022-10-31T08:32:14;364.48;;;328.27;;
40088;SDS011;25793;55.706;13.186;2022-10-31T08:34:59;367.60;;;331.02;;
40088;SDS011;25793;55.706;13.186;2022-10-31T08:37:44;366.10;;;329.10;;
40088;SDS011;25793;55.706;13.186;2022-10-31T08:40:11;361.65;;;324.98;;
40088;SDS011;25793;55.706;13.186;2022-10-31T08:42:39;368.50;;;331.55;;
40088;SDS011;25793;55.706;13.186;2022-10-31T08:45:06;382.67;;;343.50;;
40088;SDS011;25793;55.706;13.186;2022-10-31T08:47:34;373.90;;;335.65;;
40088;SDS011;25793;55.706;13.186;2022-10-31T08:50:01;388.33;;;349.53;;
40088;SDS011;25793;55.706;13.186;2022-10-31T08:52:28;385.63;;;347.00;;
40088;SDS011;25793;55.706;13.186;2022-10-31T08:55:14;385.50;;;346.00;;
40088;SDS011;25793;55.706;13.186;2022-10-31T08:58:02;386.83;;;347.17;;
40088;SDS011;25793;55.706;13.186;2022-10-31T09:00:38;381.25;;;341.75;;
40088;SDS011;25793;55.706;13.186;2022-10-31T09:03:34;375.25;;;336.25;;
40088;SDS011;25793;55.706;13.186;2022-10-31T09:06:00;377.00;;;337.42;;
40088;SDS011;25793;55.706;13.186;2022-10-31T09:08:29;388.77;;;349.25;;
40088;SDS011;25793;55.706;13.186;2022-10-31T09:10:57;375.75;;;336.55;;
40088;SDS011;25793;55.706;13.186;2022-10-31T09:13:47;372.73;;;333.80;;
40088;SDS011;25793;55.706;13.186;2022-10-31T09:16:14;383.90;;;343.15;;
40088;SDS011;25793;55.706;13.186;2022-10-31T09:18:40;392.70;;;351.20;;
40088;SDS011;25793;55.706;13.186;2022-10-31T09:21:07;399.25;;;355.42;;
40088;SDS011;25793;55.706;13.186;2022-10-31T09:23:33;411.45;;;347.15;;
40088;SDS011;25793;55.706;13.186;2022-10-31T09:26:01;429.52;;;348.27;;
40088;SDS011;25793;55.706;13.186;2022-10-31T09:28:50;431.80;;;350.83;;
40088;SDS011;25793;55.706;13.186;2022-10-31T09:31:17;440.55;;;346.60;;
40088;SDS011;25793;55.706;13.186;2022-10-31T09:33:46;464.67;;;340.60;;
40088;SDS011;25793;55.706;13.186;2022-10-31T09:36:36;512.65;;;341.30;;
40088;SDS011;25793;55.706;13.186;2022-10-31T09:39:11;494.73;;;332.87;;
40088;SDS011;25793;55.706;13.186;2022-10-31T09:42:22;487.17;;;346.27;;
40088;SDS011;25793;55.706;13.186;2022-10-31T09:57:18;387.33;;;290.77;;
40088;SDS011;25793;55.706;13.186;2022-10-31T09:59:52;342.08;;;299.70;;
40088;SDS011;25793;55.706;13.186;2022-10-31T10:02:29;351.17;;;306.00;;
40088;SDS011;25793;55.706;13.186;2022-10-31T10:05:18;350.20;;;303.10;;
40088;SDS011;25793;55.706;13.186;2022-10-31T10:17:04;357.20;;;317.23;;
40088;SDS011;25793;55.706;13.186;2022-10-31T10:19:45;352.03;;;310.67;;
40088;SDS011;25793;55.706;13.186;2022-10-31T10:22:25;349.20;;;310.75;;
40088;SDS011;25793;55.706;13.186;2022-10-31T10:30:16;337.30;;;300.25;;
40088;SDS011;25793;55.706;13.186;2022-10-31T10:32:56;336.92;;;289.88;;
40088;SDS011;25793;55.706;13.186;2022-10-31T10:35:32;341.63;;;298.25;;
40088;SDS011;25793;55.706;13.186;2022-10-31T10:38:10;343.67;;;293.33;;
40088;SDS011;25793;55.706;13.186;2022-10-31T10:40:39;339.00;;;290.00;;
40088;SDS011;25793;55.706;13.186;2022-10-31T10:43:17;347.58;;;308.45;;
40088;SDS011;25793;55.706;13.186;2022-10-31T10:49:17;338.63;;;297.80;;
40088;SDS011;25793;55.706;13.186;2022-10-31T10:55:03;371.25;;;318.85;;
40088;SDS011;25793;55.706;13.186;2022-10-31T11:00:32;374.85;;;328.10;;
40088;SDS011;25793;55.706;13.186;2022-10-31T11:03:02;366.23;;;326.00;;
40088;SDS011;25793;55.706;13.186;2022-10-31T11:08:26;390.83;;;348.48;;
40088;SDS011;25793;55.706;13.186;2022-10-31T11:13:28;364.88;;;324.70;;
40088;SDS011;25793;55.706;13.186;2022-10-31T11:15:58;364.98;;;326.58;;
40088;SDS011;25793;55.706;13.186;2022-10-31T11:18:29;363.55;;;324.75;;
40088;SDS011;25793;55.706;13.186;2022-10-31T11:20:59;377.15;;;336.52;;
40088;SDS011;25793;55.706;13.186;2022-10-31T11:23:27;363.48;;;323.33;;
40088;SDS011;25793;55.706;13.186;2022-10-31T11:28:21;368.98;;;329.58;;
40088;SDS011;25793;55.706;13.186;2022-10-31T11:30:50;361.63;;;322.30;;
40088;SDS011;25793;55.706;13.186;2022-10-31T11:33:24;366.80;;;326.83;;
40088;SDS011;25793;55.706;13.186;2022-10-31T11:35:55;372.50;;;331.83;;
40088;SDS011;25793;55.706;13.186;2022-10-31T11:38:29;370.13;;;329.40;;
40088;SDS011;25793;55.706;13.186;2022-10-31T11:41:06;355.05;;;316.30;;
40088;SDS011;25793;55.706;13.186;2022-10-31T11:43:36;355.77;;;316.73;;
40088;SDS011;25793;55.706;13.186;2022-10-31T11:46:10;363.80;;;324.52;;
40088;SDS011;25793;55.706;13.186;2022-10-31T11:48:45;376.60;;;336.00;;
40088;SDS011;25793;55.706;13.186;2022-10-31T11:51:22;373.65;;;333.60;;
40088;SDS011;25793;55.706;13.186;2022-10-31T11:53:55;375.13;;;335.88;;
40088;SDS011;25793;55.706;13.186;2022-10-31T11:56:41;372.87;;;332.80;;
40088;SDS011;25793;55.706;13.186;2022-10-31T11:59:15;373.53;;;332.70;;
40088;SDS011;25793;55.706;13.186;2022-10-31T12:01:50;380.20;;;339.17;;
40088;SDS011;25793;55.706;13.186;2022-10-31T12:04:18;370.48;;;330.83;;
40088;SDS011;25793;55.706;13.186;2022-10-31T12:07:01;362.88;;;323.98;;
40088;SDS011;25793;55.706;13.186;2022-10-31T12:09:28;366.08;;;326.70;;
40088;SDS011;25793;55.706;13.186;2022-10-31T12:17:33;360.00;;;322.17;;
40088;SDS011;25793;55.706;13.186;2022-10-31T12:20:16;368.42;;;330.58;;
40088;SDS011;25793;55.706;13.186;2022-10-31T12:33:42;371.65;;;332.80;;
40088;SDS011;25793;55.706;13.186;2022-10-31T12:36:21;369.90;;;330.20;;
40088;SDS011;25793;55.706;13.186;2022-10-31T12:38:58;355.60;;;317.83;;
40088;SDS011;25793;55.706;13.186;2022-10-31T12:47:38;390.75;;;349.60;;
40088;SDS011;25793;55.706;13.186;2022-10-31T12:50:28;396.23;;;355.00;;
40088;SDS011;25793;55.706;13.186;2022-10-31T12:58:26;364.80;;;327.57;;
40088;SDS011;25793;55.706;13.186;2022-10-31T13:03:44;375.53;;;338.30;;
40088;SDS011;25793;55.706;13.186;2022-10-31T13:06:29;375.83;;;338.98;;
40088;SDS011;25793;55.706;13.186;2022-10-31T13:09:12;378.20;;;341.33;;
40088;SDS011;25793;55.706;13.186;2022-10-31T13:11:45;373.50;;;336.83;;
40088;SDS011;25793;55.706;13.186;2022-10-31T13:17:00;365.27;;;329.33;;
40088;SDS011;25793;55.706;13.186;2022-10-31T13:19:30;367.10;;;331.00;;
40088;SDS011;25793;55.706;13.186;2022-10-31T13:22:07;363.80;;;328.08;;
40088;SDS011;25793;55.706;13.186;2022-10-31T13:24:45;363.52;;;327.58;;
40088;SDS011;25793;55.706;13.186;2022-10-31T13:27:26;363.50;;;327.33;;
40088;SDS011;25793;55.706;13.186;2022-10-31T13:30:02;359.38;;;324.67;;
40088;SDS011;25793;55.706;13.186;2022-10-31T13:41:02;356.08;;;321.02;;
40088;SDS011;25793;55.706;13.186;2022-10-31T13:44:39;355.67;;;320.70;;
40088;SDS011;25793;55.706;13.186;2022-10-31T13:46:46;336.75;;;303.13;;
40088;SDS011;25793;55.706;13.186;2022-10-31T13:49:47;347.83;;;313.17;;
40088;SDS011;25793;55.706;13.186;2022-10-31T13:54:36;350.57;;;315.43;;
40088;SDS011;25793;55.706;13.186;2022-10-31T13:57:07;350.90;;;315.55;;
40088;SDS011;25793;55.706;13.186;2022-10-31T13:59:46;365.35;;;329.27;;
40088;SDS011;25793;55.706;13.186;2022-10-31T14:02:17;374.80;;;338.67;;
40088;SDS011;25793;55.706;13.186;2022-10-31T14:04:52;376.33;;;340.27;;
40088;SDS011;25793;55.706;13.186;2022-10-31T14:07:24;361.60;;;326.50;;
40088;SDS011;25793;55.706;13.186;2022-10-31T14:09:53;366.92;;;331.42;;
40088;SDS011;25793;55.706;13.186;2022-10-31T14:12:37;367.98;;;332.60;;
40088;SDS011;25793;55.706;13.186;2022-10-31T14:15:18;358.47;;;322.90;;
40088;SDS011;25793;55.706;13.186;2022-10-31T14:17:48;353.48;;;318.67;;
40088;SDS011;25793;55.706;13.186;2022-10-31T14:22:44;358.03;;;322.77;;
40088;SDS011;25793;55.706;13.186;2022-10-31T14:27:58;373.25;;;336.40;;
40088;SDS011;25793;55.706;13.186;2022-10-31T14:30:28;375.95;;;338.38;;
40088;SDS011;25793;55.706;13.186;2022-10-31T14:33:00;364.13;;;328.10;;
40088;SDS011;25793;55.706;13.186;2022-10-31T14:49:26;385.63;;;347.10;;
40088;SDS011;25793;55.706;13.186;2022-10-31T14:52:05;379.15;;;341.80;;
40088;SDS011;25793;55.706;13.186;2022-10-31T14:54:37;371.02;;;334.08;;
40088;SDS011;25793;55.706;13.186;2022-10-31T14:57:07;376.00;;;338.63;;
40088;SDS011;25793;55.706;13.186;2022-10-31T14:59:54;391.05;;;352.10;;
40088;SDS011;25793;55.706;13.186;2022-10-31T15:02:30;383.27;;;345.08;;
40088;SDS011;25793;55.706;13.186;2022-10-31T15:05:13;381.77;;;343.67;;
40088;SDS011;25793;55.706;13.186;2022-10-31T15:07:56;380.73;;;343.05;;
40088;SDS011;25793;55.706;13.186;2022-10-31T15:10:25;381.25;;;343.60;;
40088;SDS011;25793;55.706;13.186;2022-10-31T15:12:56;378.65;;;341.63;;
40088;SDS011;25793;55.706;13.186;2022-10-31T15:15:35;395.67;;;355.20;;
40088;SDS011;25793;55.706;13.186;2022-10-31T15:18:03;380.42;;;342.75;;
40088;SDS011;25793;55.706;13.186;2022-10-31T15:20:35;379.83;;;342.35;;
40088;SDS011;25793;55.706;13.186;2022-10-31T15:23:09;380.80;;;343.58;;
40088;SDS011;25793;55.706;13.186;2022-10-31T15:25:37;372.05;;;335.58;;
40088;SDS011;25793;55.706;13.186;2022-10-31T15:28:12;349.58;;;314.60;;
40088;SDS011;25793;55.706;13.186;2022-10-31T15:30:54;349.48;;;314.05;;
40088;SDS011;25793;55.706;13.186;2022-10-31T15:33:26;355.85;;;319.60;;
40088;SDS011;25793;55.706;13.186;2022-10-31T15:36:03;363.63;;;327.42;;
40088;SDS011;25793;55.706;13.186;2022-10-31T15:38:29;349.00;;;313.33;;
40088;SDS011;25793;55.706;13.186;2022-10-31T15:43:40;349.23;;;313.67;;
40088;SDS011;25793;55.706;13.186;2022-10-31T15:46:11;379.10;;;342.00;;
40088;SDS011;25793;55.706;13.186;2022-10-31T15:48:37;361.40;;;325.37;;
40088;SDS011;25793;55.706;13.186;2022-10-31T15:51:06;361.03;;;325.60;;
40088;SDS011;25793;55.706;13.186;2022-10-31T15:53:51;368.88;;;333.00;;
40088;SDS011;25793;55.706;13.186;2022-10-31T15:56:20;353.83;;;318.90;;
40088;SDS011;25793;55.706;13.186;2022-10-31T15:58:50;373.97;;;336.97;;
40088;SDS011;25793;55.706;13.186;2022-10-31T16:01:20;362.58;;;327.42;;
40088;SDS011;25793;55.706;13.186;2022-10-31T16:03:59;354.38;;;319.15;;
40088;SDS011;25793;55.706;13.186;2022-10-31T16:06:32;355.15;;;321.15;;
40088;SDS011;25793;55.706;13.186;2022-10-31T16:09:00;342.80;;;309.30;;
40088;SDS011;25793;55.706;13.186;2022-10-31T16:11:32;356.58;;;321.60;;
40088;SDS011;25793;55.706;13.186;2022-10-31T16:14:03;352.23;;;318.00;;
40088;SDS011;25793;55.706;13.186;2022-10-31T16:16:46;361.20;;;325.40;;
40088;SDS011;25793;55.706;13.186;2022-10-31T16:19:28;342.02;;;307.98;;
40088;SDS011;25793;55.706;13.186;2022-10-31T16:25:01;340.73;;;306.42;;
40088;SDS011;25793;55.706;13.186;2022-10-31T16:27:32;331.45;;;298.70;;
40088;SDS011;25793;55.706;13.186;2022-10-31T16:30:01;338.33;;;304.63;;
40088;SDS011;25793;55.706;13.186;2022-10-31T16:37:37;334.02;;;300.85;;
40088;SDS011;25793;55.706;13.186;2022-10-31T16:40:04;339.88;;;306.13;;
40088;SDS011;25793;55.706;13.186;2022-10-31T16:42:31;347.52;;;313.48;;
40088;SDS011;25793;55.706;13.186;2022-10-31T16:44:58;341.02;;;306.90;;
40088;SDS011;25793;55.706;13.186;2022-10-31T16:47:25;331.98;;;298.80;;
40088;SDS011;25793;55.706;13.186;2022-10-31T16:49:54;328.65;;;295.60;;
40088;SDS011;25793;55.706;13.186;2022-10-31T16:52:20;327.10;;;294.52;;
40088;SDS011;25793;55.706;13.186;2022-10-31T16:54:47;332.77;;;300.05;;
40088;SDS011;25793;55.706;13.186;2022-10-31T16:57:14;338.92;;;304.13;;
40088;SDS011;25793;55.706;13.186;2022-10-31T16:59:51;363.30;;;327.20;;